createdAt,value
2019-03-01T00:01:07.422Z,6.33
2019-03-01T00:03:37.233Z,7.20
2019-03-01T00:06:14.486Z,6.80
2019-03-01T00:08:54.864Z,6.30
2019-03-01T00:11:28.846Z,7.47
2019-03-01T00:14:00.292Z,7.57
2019-03-01T00:16:37.757Z,7.43
2019-03-01T00:19:18.341Z,6.87
2019-03-01T00:21:55.692Z,7.17
2019-03-01T00:24:54.161Z,5.83
2019-03-01T00:27:45.084Z,7.00
2019-03-01T00:30:45.411Z,6.63
2019-03-01T00:33:33.541Z,6.00
2019-03-01T00:36:22.944Z,6.10
2019-03-01T00:39:13.853Z,6.70
2019-03-01T00:41:47.745Z,6.50
2019-03-01T00:44:44.181Z,6.07
2019-03-01T00:47:12.904Z,6.27
2019-03-01T00:49:41.313Z,5.47
2019-03-01T00:52:09.838Z,5.57
2019-03-01T00:54:38.167Z,6.87
2019-03-01T00:57:07.017Z,6.10
2019-03-01T00:59:35.278Z,5.83
2019-03-01T01:02:03.656Z,5.53
2019-03-01T01:04:31.939Z,5.67
2019-03-01T01:07:00.222Z,5.37
2019-03-01T01:09:28.569Z,5.60
2019-03-01T01:11:56.941Z,6.10
2019-03-01T01:14:25.203Z,5.30
2019-03-01T01:16:53.452Z,6.67
2019-03-01T01:19:21.728Z,6.20
2019-03-01T01:21:50.011Z,6.07
2019-03-01T01:24:18.291Z,5.67
2019-03-01T01:26:46.566Z,6.40
2019-03-01T01:29:14.832Z,5.33
2019-03-01T01:31:43.130Z,6.13
2019-03-01T01:34:11.403Z,6.47
2019-03-01T01:36:39.676Z,5.80
2019-03-01T01:39:08.588Z,6.73
2019-03-01T01:41:36.927Z,6.17
2019-03-01T01:44:05.477Z,6.30
2019-03-01T01:46:33.880Z,5.60
2019-03-01T01:49:02.260Z,6.80
2019-03-01T01:51:30.615Z,6.07
2019-03-01T01:53:58.905Z,6.30
2019-03-01T01:56:27.247Z,5.80
2019-03-01T01:58:55.501Z,5.70
2019-03-01T02:01:23.776Z,5.90
2019-03-01T02:03:52.180Z,5.93
2019-03-01T02:06:20.442Z,6.07
2019-03-01T02:08:48.691Z,5.77
2019-03-01T02:11:17.219Z,6.00
2019-03-01T02:13:45.496Z,6.00
2019-03-01T02:16:13.781Z,7.00
2019-03-01T02:18:42.055Z,6.73
2019-03-01T02:21:10.332Z,7.43
2019-03-01T02:23:40.110Z,7.47
2019-03-01T02:26:08.567Z,7.93
2019-03-01T02:28:36.845Z,7.83
2019-03-01T02:31:07.875Z,7.93
2019-03-01T02:33:36.122Z,8.53
2019-03-01T02:36:04.456Z,7.40
2019-03-01T02:38:32.739Z,8.07
2019-03-01T02:41:01.014Z,8.10
2019-03-01T02:43:29.280Z,8.47
2019-03-01T02:45:57.572Z,8.20
2019-03-01T02:48:25.862Z,7.50
2019-03-01T02:50:54.129Z,8.00
2019-03-01T02:53:22.389Z,8.60
2019-03-01T02:55:50.672Z,8.00
2019-03-01T02:58:18.938Z,8.37
2019-03-01T03:00:47.203Z,8.17
2019-03-01T03:03:15.579Z,8.17
2019-03-01T03:05:45.791Z,9.37
2019-03-01T03:08:14.087Z,9.03
2019-03-01T03:10:42.356Z,8.07
2019-03-01T03:13:10.641Z,8.30
2019-03-01T03:15:40.586Z,9.03
2019-03-01T03:18:08.933Z,8.43
2019-03-01T03:20:37.219Z,8.77
2019-03-01T03:23:05.522Z,8.67
2019-03-01T03:25:33.784Z,8.47
2019-03-01T03:28:02.111Z,9.43
2019-03-01T03:30:30.396Z,10.00
2019-03-01T03:32:58.700Z,8.30
2019-03-01T03:35:26.966Z,8.60
2019-03-01T03:37:55.242Z,9.60
2019-03-01T03:40:23.565Z,9.00
2019-03-01T03:42:51.858Z,10.37
2019-03-01T03:45:20.188Z,10.33
2019-03-01T03:47:48.473Z,8.57
2019-03-01T03:50:16.837Z,9.70
2019-03-01T03:52:45.164Z,8.67
2019-03-01T03:55:15.639Z,11.07
2019-03-01T03:57:43.920Z,9.70
2019-03-01T04:00:23.134Z,9.23
2019-03-01T04:02:51.489Z,8.07
2019-03-01T04:05:19.838Z,9.10
2019-03-01T04:07:48.119Z,9.20
2019-03-01T04:10:16.493Z,9.30
2019-03-01T04:12:44.749Z,8.57
2019-03-01T04:15:16.761Z,8.20
2019-03-01T04:17:45.045Z,9.13
2019-03-01T04:20:17.544Z,8.60
2019-03-01T04:22:45.905Z,9.43
2019-03-01T04:25:14.247Z,9.27
2019-03-01T04:27:42.494Z,8.80
2019-03-01T04:30:13.415Z,9.57
2019-03-01T04:32:41.679Z,8.60
2019-03-01T04:35:10.003Z,9.83
2019-03-01T04:37:38.366Z,10.13
2019-03-01T04:40:09.541Z,9.87
2019-03-01T04:42:37.809Z,9.97
2019-03-01T04:45:08.826Z,9.43
2019-03-01T04:47:37.111Z,12.40
2019-03-01T04:50:07.789Z,10.93
2019-03-01T04:52:36.211Z,10.17
2019-03-01T04:55:09.949Z,10.57
2019-03-01T04:57:38.226Z,10.73
2019-03-01T05:00:09.679Z,11.03
2019-03-01T05:02:37.965Z,10.13
2019-03-01T05:05:06.803Z,10.37
2019-03-01T05:07:35.082Z,11.23
2019-03-01T05:10:04.504Z,11.10
2019-03-01T05:12:32.769Z,10.70
2019-03-01T05:15:01.126Z,11.43
2019-03-01T05:17:29.398Z,10.40
2019-03-01T05:19:57.674Z,11.17
2019-03-01T05:22:25.952Z,10.80
2019-03-01T05:24:54.231Z,11.07
2019-03-01T05:27:22.530Z,11.67
2019-03-01T05:29:50.802Z,12.10
2019-03-01T05:32:19.099Z,11.23
2019-03-01T05:34:47.402Z,10.30
2019-03-01T05:37:15.673Z,11.27
2019-03-01T05:39:43.947Z,11.40
2019-03-01T05:42:12.290Z,11.20
2019-03-01T05:44:40.593Z,10.63
2019-03-01T05:47:08.862Z,10.67
2019-03-01T05:49:37.141Z,11.00
2019-03-01T05:52:05.420Z,11.67
2019-03-01T05:54:33.695Z,10.83
2019-03-01T05:57:01.993Z,10.13
2019-03-01T05:59:30.279Z,10.83
2019-03-01T06:02:07.692Z,10.47
2019-03-01T06:04:47.557Z,10.07
2019-03-01T06:07:43.381Z,9.87
2019-03-01T06:10:26.312Z,9.70
2019-03-01T06:13:17.070Z,11.00
2019-03-01T06:15:51.089Z,10.70
2019-03-01T06:18:43.735Z,10.43
2019-03-01T06:21:15.187Z,10.27
2019-03-01T06:24:03.233Z,10.17
2019-03-01T06:26:43.759Z,9.87
2019-03-01T06:29:27.227Z,9.70
2019-03-01T06:32:04.434Z,10.30
2019-03-01T06:34:47.757Z,10.00
2019-03-01T06:37:28.021Z,9.30
2019-03-01T06:40:23.412Z,9.40
2019-03-01T06:42:57.495Z,9.33
2019-03-01T06:45:41.120Z,10.77
2019-03-01T06:48:11.134Z,9.83
2019-03-01T06:50:43.737Z,11.30
2019-03-01T06:53:12.026Z,10.90
2019-03-01T06:55:42.566Z,9.77
2019-03-01T06:58:14.107Z,11.70
2019-03-01T07:00:50.207Z,10.20
2019-03-01T07:03:14.114Z,10.43
2019-03-01T07:05:42.387Z,9.77
2019-03-01T07:08:10.664Z,9.60
2019-03-01T07:10:38.955Z,10.53
2019-03-01T07:13:07.222Z,10.20
2019-03-01T07:15:35.764Z,9.33
2019-03-01T07:18:04.024Z,9.77
2019-03-01T07:20:32.322Z,10.90
2019-03-01T07:23:00.599Z,10.93
2019-03-01T07:25:28.893Z,11.17
2019-03-01T07:27:57.168Z,10.30
2019-03-01T07:30:25.456Z,9.37
2019-03-01T07:32:53.738Z,10.60
2019-03-01T07:35:22.101Z,9.80
2019-03-01T07:37:50.345Z,8.80
2019-03-01T07:40:18.656Z,10.80
2019-03-01T07:42:46.917Z,8.90
2019-03-01T07:45:15.274Z,10.30
2019-03-01T07:47:43.556Z,11.30
2019-03-01T07:50:14.790Z,9.73
2019-03-01T07:52:43.069Z,8.63
2019-03-01T07:55:12.021Z,10.47
2019-03-01T07:57:40.277Z,9.80
2019-03-01T08:00:14.257Z,9.80
2019-03-01T08:02:42.433Z,9.33
2019-03-01T08:05:13.501Z,10.17
2019-03-01T08:07:42.763Z,9.63
2019-03-01T08:10:20.645Z,9.43
2019-03-01T08:12:47.183Z,9.07
2019-03-01T08:15:17.236Z,9.37
2019-03-01T08:17:45.506Z,8.50
2019-03-01T08:20:15.732Z,8.73
2019-03-01T08:22:48.477Z,9.40
2019-03-01T08:25:14.055Z,8.30
2019-03-01T08:27:46.290Z,7.53
2019-03-01T08:30:16.782Z,9.30
2019-03-01T08:32:45.146Z,8.30
2019-03-01T08:35:17.858Z,9.27
2019-03-01T08:37:46.117Z,8.57
2019-03-01T08:40:19.038Z,8.37
2019-03-01T08:42:47.365Z,7.50
2019-03-01T08:45:17.580Z,7.47
2019-03-01T08:47:45.843Z,8.10
2019-03-01T08:50:15.781Z,7.33
2019-03-01T08:52:44.800Z,7.47
2019-03-01T08:55:30.652Z,7.80
2019-03-01T08:58:02.859Z,7.50
2019-03-01T09:00:34.353Z,7.37
2019-03-01T09:03:09.039Z,7.03
2019-03-01T09:05:37.414Z,6.57
2019-03-01T09:08:05.693Z,6.67
2019-03-01T09:10:33.983Z,6.73
2019-03-01T09:13:02.264Z,7.10
2019-03-01T09:15:30.549Z,6.90
2019-03-01T09:17:58.813Z,7.10
2019-03-01T09:20:27.067Z,6.70
2019-03-01T09:22:55.704Z,7.43
2019-03-01T09:25:23.987Z,7.60
2019-03-01T09:27:52.358Z,7.90
2019-03-01T09:30:23.049Z,8.00
2019-03-01T09:32:51.320Z,7.30
2019-03-01T09:35:29.865Z,6.83
2019-03-01T09:37:58.766Z,7.83
2019-03-01T09:40:28.841Z,7.33
2019-03-01T09:42:57.076Z,7.20
2019-03-01T09:45:25.450Z,7.20
2019-03-01T09:47:53.720Z,6.07
2019-03-01T09:50:24.725Z,6.03
2019-03-01T09:52:55.497Z,4.80
2019-03-01T09:55:22.996Z,4.40
2019-03-01T09:57:51.250Z,5.73
2019-03-01T10:00:31.792Z,4.70
2019-03-01T10:03:00.076Z,4.40
2019-03-01T10:05:28.496Z,3.40
2019-03-01T10:07:56.806Z,3.70
2019-03-01T10:10:27.791Z,2.53
2019-03-01T10:12:56.051Z,2.60
2019-03-01T10:15:24.364Z,2.40
2019-03-01T10:17:52.747Z,2.97
2019-03-01T10:20:20.998Z,3.30
2019-03-01T10:22:49.342Z,3.23
2019-03-01T10:25:19.703Z,3.33
2019-03-01T10:27:48.084Z,4.00
2019-03-01T10:30:26.690Z,3.20
2019-03-01T10:32:54.981Z,3.10
2019-03-01T10:35:23.257Z,3.70
2019-03-01T10:37:52.997Z,3.90
2019-03-01T10:40:28.198Z,4.07
2019-03-01T10:42:57.249Z,3.33
2019-03-01T10:45:32.298Z,3.43
2019-03-01T10:48:01.129Z,4.70
2019-03-01T10:50:29.412Z,3.40
2019-03-01T10:52:57.674Z,3.90
2019-03-01T10:55:25.963Z,3.40
2019-03-01T10:57:54.242Z,2.87
2019-03-01T11:00:27.639Z,3.43
2019-03-01T11:02:57.070Z,2.47
2019-03-01T11:05:26.082Z,2.70
2019-03-01T11:07:55.217Z,3.40
2019-03-01T11:10:37.682Z,4.03
2019-03-01T11:13:11.401Z,3.40
2019-03-01T11:15:39.687Z,2.73
2019-03-01T11:18:07.956Z,3.00
2019-03-01T11:20:36.244Z,3.20
2019-03-01T11:23:04.578Z,3.70
2019-03-01T11:25:33.009Z,3.30
2019-03-01T11:28:01.289Z,3.40
2019-03-01T11:30:32.386Z,3.73
2019-03-01T11:33:00.647Z,4.10
2019-03-01T11:35:28.974Z,5.40
2019-03-01T11:37:57.257Z,5.00
2019-03-01T11:40:36.352Z,5.67
2019-03-01T11:43:05.451Z,5.83
2019-03-01T11:45:33.788Z,5.77
2019-03-01T11:48:07.060Z,6.33
2019-03-01T11:50:35.498Z,6.97
2019-03-01T11:53:03.896Z,7.67
2019-03-01T11:55:32.181Z,7.03
2019-03-01T11:58:00.455Z,7.50
2019-03-01T12:00:29.576Z,7.47
2019-03-01T12:02:57.900Z,7.60
2019-03-01T12:05:26.229Z,8.87
2019-03-01T12:07:54.502Z,9.30
2019-03-01T12:10:32.360Z,9.30
2019-03-01T12:13:00.634Z,9.33
2019-03-01T12:15:28.912Z,9.37
2019-03-01T12:17:57.392Z,11.13
2019-03-01T12:20:27.543Z,11.37
2019-03-01T12:22:55.898Z,11.87
2019-03-01T12:25:24.335Z,12.67
2019-03-01T12:27:52.633Z,13.87
2019-03-01T12:30:23.287Z,12.63
2019-03-01T12:32:51.543Z,15.53
2019-03-01T12:35:20.882Z,15.20
2019-03-01T12:37:49.187Z,17.70
2019-03-01T12:40:20.649Z,18.13
2019-03-01T12:42:48.925Z,16.57
2019-03-01T12:45:17.298Z,17.00
2019-03-01T12:47:45.577Z,18.60
2019-03-01T12:50:15.466Z,19.53
2019-03-01T12:52:44.018Z,19.07
2019-03-01T12:55:20.653Z,17.90
2019-03-01T12:57:48.954Z,19.30
2019-03-01T13:00:32.015Z,20.23
2019-03-01T13:03:00.292Z,19.03
2019-03-01T13:05:30.285Z,20.73
2019-03-01T13:07:58.969Z,22.30
2019-03-01T13:10:30.230Z,21.97
2019-03-01T13:13:01.580Z,23.90
2019-03-01T13:15:28.523Z,24.50
2019-03-01T13:17:56.813Z,26.03
2019-03-01T13:20:25.116Z,25.60
2019-03-01T13:22:53.392Z,25.63
2019-03-01T13:25:21.672Z,25.47
2019-03-01T13:27:52.513Z,26.00
2019-03-01T13:30:27.327Z,25.83
2019-03-01T13:32:59.043Z,27.20
2019-03-01T13:35:27.232Z,28.23
2019-03-01T13:37:56.798Z,30.33
2019-03-01T13:40:25.549Z,28.17
2019-03-01T13:42:54.021Z,30.17
2019-03-01T13:45:26.236Z,30.67
2019-03-01T13:47:54.531Z,30.17
2019-03-01T13:50:23.273Z,31.33
2019-03-01T13:52:51.633Z,32.83
2019-03-01T13:55:22.259Z,31.00
2019-03-01T13:57:51.404Z,33.00
2019-03-01T14:00:21.877Z,32.53
2019-03-01T14:02:50.520Z,34.27
2019-03-01T14:05:19.054Z,33.43
2019-03-01T14:07:55.280Z,35.07
2019-03-01T14:10:23.254Z,34.30
2019-03-01T14:12:51.684Z,35.17
2019-03-01T14:15:20.019Z,35.70
2019-03-01T14:17:51.249Z,34.60
2019-03-01T14:20:21.243Z,36.20
2019-03-01T14:22:50.305Z,36.30
2019-03-01T14:25:18.657Z,36.87
2019-03-01T14:27:47.031Z,38.47
2019-03-01T14:30:25.211Z,35.20
2019-03-01T14:32:57.648Z,37.90
2019-03-01T14:35:26.928Z,38.30
2019-03-01T14:40:43.430Z,38.10
2019-03-01T14:43:12.408Z,39.60
2019-03-01T14:45:41.705Z,40.23
2019-03-01T14:48:10.682Z,38.93
2019-03-01T14:50:38.977Z,40.40
2019-03-01T14:53:10.698Z,38.80
2019-03-01T14:56:04.030Z,40.10
2019-03-01T14:58:47.425Z,39.73
2019-03-01T15:01:26.683Z,39.40
2019-03-01T15:03:54.886Z,38.37
2019-03-01T15:06:23.134Z,38.17
2019-03-01T15:08:51.413Z,37.40
2019-03-01T15:11:19.755Z,37.50
2019-03-01T15:13:48.130Z,35.23
2019-03-01T15:16:16.479Z,35.60
2019-03-01T15:18:44.843Z,36.00
2019-03-01T15:21:14.152Z,36.40
2019-03-01T15:23:42.417Z,37.33
2019-03-01T15:26:10.694Z,33.70
2019-03-01T15:28:42.138Z,33.47
2019-03-01T15:31:10.525Z,34.50
2019-03-01T15:33:48.763Z,30.57
2019-03-01T15:39:10.786Z,31.40
2019-03-01T15:41:41.998Z,30.17
2019-03-01T15:44:09.100Z,32.93
2019-03-01T15:46:37.453Z,32.40
2019-03-01T15:49:05.749Z,34.50
2019-03-01T15:51:34.715Z,32.20
2019-03-01T15:54:04.046Z,32.17
2019-03-01T15:56:32.321Z,32.87
2019-03-01T15:59:00.622Z,34.67
2019-03-01T16:01:28.865Z,31.50
2019-03-01T16:03:57.956Z,31.57
2019-03-01T16:06:26.382Z,33.23
2019-03-01T16:08:54.772Z,34.30
2019-03-01T16:11:23.051Z,33.87
2019-03-01T16:13:51.318Z,34.43
2019-03-01T16:16:19.630Z,32.20
2019-03-01T16:18:47.891Z,34.70
2019-03-01T16:21:16.178Z,38.23
2019-03-01T16:23:44.443Z,34.90
2019-03-01T16:26:12.759Z,33.90
2019-03-01T16:28:40.996Z,32.53
2019-03-01T16:31:09.283Z,33.10
2019-03-01T16:33:37.568Z,35.33
2019-03-01T16:36:07.474Z,32.23
2019-03-01T16:38:40.875Z,32.93
2019-03-01T16:41:07.725Z,32.80
2019-03-01T16:43:35.779Z,33.67
2019-03-01T16:46:04.107Z,33.90
2019-03-01T16:48:32.452Z,33.63
2019-03-01T16:51:00.742Z,33.83
2019-03-01T16:53:29.002Z,34.17
2019-03-01T16:55:59.239Z,32.70
2019-03-01T16:58:28.206Z,32.70
2019-03-01T17:00:57.221Z,32.40
2019-03-01T17:03:25.540Z,32.87
2019-03-01T17:05:55.114Z,33.63
2019-03-01T17:08:23.560Z,34.60
2019-03-01T17:10:51.884Z,35.00
2019-03-01T17:13:20.137Z,33.90
2019-03-01T17:15:49.218Z,32.60
2019-03-01T17:18:17.573Z,33.07
2019-03-01T17:20:45.846Z,32.30
2019-03-01T17:23:14.123Z,33.47
2019-03-01T17:25:42.447Z,32.17
2019-03-01T17:28:10.707Z,34.73
2019-03-01T17:30:38.992Z,32.60
2019-03-01T17:33:09.674Z,33.90
2019-03-01T17:35:37.724Z,32.97
2019-03-01T17:38:08.285Z,34.93
2019-03-01T17:40:36.675Z,34.10
2019-03-01T17:43:05.043Z,32.77
2019-03-01T17:45:33.332Z,34.23
2019-03-01T17:48:01.626Z,34.10
2019-03-01T17:50:29.894Z,33.47
2019-03-01T17:52:58.192Z,34.47
2019-03-01T17:55:27.891Z,33.77
2019-03-01T17:57:56.181Z,33.57
2019-03-01T18:00:38.169Z,33.43
2019-03-01T18:03:06.529Z,34.20
2019-03-01T18:05:36.899Z,32.37
2019-03-01T18:08:05.056Z,33.30
2019-03-01T18:10:33.348Z,32.47
2019-03-01T18:13:01.616Z,32.90
2019-03-01T18:15:29.968Z,33.77
2019-03-01T18:17:58.240Z,31.87
2019-03-01T18:20:26.549Z,31.27
2019-03-01T18:22:54.819Z,32.43
2019-03-01T18:25:26.229Z,29.03
2019-03-01T18:27:53.872Z,29.97
2019-03-01T18:30:31.428Z,30.63
2019-03-01T18:32:59.708Z,28.93
2019-03-01T18:35:27.977Z,29.20
2019-03-01T18:37:56.345Z,28.00
2019-03-01T18:40:24.607Z,26.70
2019-03-01T18:42:52.909Z,27.40
2019-03-01T18:45:27.619Z,24.03
2019-03-01T18:47:56.048Z,26.90
2019-03-01T18:50:32.581Z,27.17
2019-03-01T18:53:03.731Z,25.80
2019-03-01T18:55:36.956Z,26.57
2019-03-01T18:58:13.911Z,25.30
2019-03-01T19:00:45.974Z,24.67
2019-03-01T19:03:17.406Z,23.33
2019-03-01T19:05:45.667Z,24.20
2019-03-01T19:08:14.571Z,23.10
2019-03-01T19:10:42.864Z,22.47
2019-03-01T19:13:12.520Z,21.80
2019-03-01T19:15:41.012Z,20.13
2019-03-01T19:18:09.280Z,20.40
2019-03-01T19:20:43.450Z,24.03
2019-03-01T19:23:11.752Z,19.37
2019-03-01T19:25:40.015Z,19.13
2019-03-01T19:28:08.299Z,19.30
2019-03-01T19:30:36.629Z,20.30
2019-03-01T19:33:04.912Z,18.50
2019-03-01T19:35:33.204Z,19.00
2019-03-01T19:38:01.548Z,19.40
2019-03-01T19:40:29.826Z,18.97
2019-03-01T19:42:58.110Z,18.20
2019-03-01T19:45:27.258Z,18.57
2019-03-01T19:48:01.420Z,17.33
2019-03-01T19:50:27.438Z,18.60
2019-03-01T19:52:55.707Z,16.37
2019-03-01T19:55:24.039Z,18.17
2019-03-01T19:57:52.311Z,16.20
2019-03-01T20:00:23.496Z,16.13
2019-03-01T20:02:51.797Z,14.10
2019-03-01T20:05:22.612Z,13.53
2019-03-01T20:07:51.747Z,13.00
2019-03-01T20:10:20.952Z,13.70
2019-03-01T20:12:49.299Z,12.47
2019-03-01T20:15:22.223Z,12.33
2019-03-01T20:17:50.485Z,12.20
2019-03-01T20:20:20.976Z,11.50
2019-03-01T20:22:50.560Z,11.30
2019-03-01T20:25:20.025Z,11.50
2019-03-01T20:27:48.364Z,12.30
2019-03-01T20:30:30.320Z,11.70
2019-03-01T20:32:57.371Z,11.50
2019-03-01T20:35:26.207Z,11.03
2019-03-01T20:37:54.581Z,11.90
2019-03-01T20:40:26.819Z,11.87
2019-03-01T20:42:56.008Z,12.43
2019-03-01T20:45:34.891Z,13.30
2019-03-01T20:48:03.492Z,15.40
2019-03-01T20:50:31.759Z,13.37
2019-03-01T20:53:00.021Z,14.00
2019-03-01T20:55:28.307Z,15.23
2019-03-01T20:57:59.844Z,15.33
2019-03-01T21:00:29.804Z,13.97
2019-03-01T21:02:57.635Z,14.53
2019-03-01T21:05:28.973Z,14.90
2019-03-01T21:07:56.004Z,15.23
2019-03-01T21:10:29.719Z,15.70
2019-03-01T21:12:57.991Z,15.30
2019-03-01T21:15:26.458Z,17.97
2019-03-01T21:17:57.099Z,16.00
2019-03-01T21:20:24.848Z,20.07
2019-03-01T21:22:53.165Z,16.60
2019-03-01T21:25:22.902Z,17.20
2019-03-01T21:27:51.196Z,17.43
2019-03-01T21:30:29.827Z,16.87
2019-03-01T21:32:58.195Z,16.13
2019-03-01T21:35:26.471Z,17.37
2019-03-01T21:37:54.759Z,18.23
2019-03-01T21:40:23.040Z,17.63
2019-03-01T21:42:52.865Z,17.97
2019-03-01T21:45:25.651Z,17.77
2019-03-01T21:47:54.123Z,17.43
2019-03-01T21:50:22.424Z,17.53
2019-03-01T21:52:50.718Z,17.30
2019-03-01T21:55:21.060Z,18.37
2019-03-01T21:57:49.924Z,18.87
2019-03-01T22:00:25.306Z,18.10
2019-03-01T22:02:54.305Z,16.90
2019-03-01T22:05:22.698Z,17.80
2019-03-01T22:07:50.991Z,17.87
2019-03-01T22:10:19.252Z,18.00
2019-03-01T22:12:47.533Z,18.57
2019-03-01T22:15:28.282Z,19.37
2019-03-01T22:17:56.955Z,21.50
2019-03-01T22:20:25.342Z,20.20
2019-03-01T22:22:53.576Z,19.27
2019-03-01T22:25:21.870Z,18.70
2019-03-01T22:27:50.122Z,20.70
2019-03-01T22:30:33.881Z,20.90
2019-03-01T22:33:02.142Z,19.73
2019-03-01T22:35:30.430Z,20.40
2019-03-01T22:38:00.907Z,20.77
2019-03-01T22:40:29.424Z,21.57
2019-03-01T22:42:57.895Z,19.60
2019-03-01T22:45:26.238Z,22.80
2019-03-01T22:47:54.572Z,18.90
2019-03-01T22:50:22.927Z,21.33
2019-03-01T22:52:51.186Z,21.03
2019-03-01T22:55:20.193Z,21.40
2019-03-01T22:57:48.528Z,21.07
2019-03-01T23:00:49.919Z,19.80
2019-03-01T23:03:20.080Z,19.50
2019-03-01T23:05:48.456Z,20.97
2019-03-01T23:08:17.362Z,22.07
2019-03-01T23:10:45.679Z,21.90
2019-03-01T23:13:16.984Z,21.63
2019-03-01T23:15:44.556Z,22.00
2019-03-01T23:18:13.123Z,21.20
2019-03-01T23:20:41.667Z,21.13
2019-03-01T23:23:09.950Z,20.30
2019-03-01T23:25:42.853Z,21.80
2019-03-01T23:28:09.885Z,19.67
2019-03-01T23:30:38.410Z,21.70
2019-03-01T23:33:06.691Z,22.67
2019-03-01T23:35:35.350Z,22.63
2019-03-01T23:38:05.291Z,23.50
2019-03-01T23:40:35.861Z,21.27
2019-03-01T23:43:03.546Z,20.40
2019-03-01T23:45:31.820Z,21.20
2019-03-01T23:48:00.101Z,21.83
2019-03-01T23:50:31.511Z,20.53
2019-03-01T23:52:59.069Z,22.37
2019-03-01T23:55:28.251Z,23.97
2019-03-01T23:58:05.536Z,23.50
